createdAt,value
2023-05-22T00:35:52.631Z,52.55
2023-05-22T00:43:44.560Z,52.42
2023-05-22T00:46:21.704Z,52.33
2023-05-22T00:49:17.949Z,52.34
2023-05-22T00:52:41.701Z,51.85
2023-05-22T00:55:22.503Z,51.40
2023-05-22T00:57:57.316Z,51.33
2023-05-22T01:00:38.166Z,51.48
2023-05-22T01:04:25.088Z,51.60
2023-05-22T01:07:07.890Z,51.76
2023-05-22T01:10:21.774Z,51.99
2023-05-22T01:17:07.451Z,52.59
2023-05-22T01:20:19.151Z,52.50
2023-05-22T01:23:38.944Z,52.78
2023-05-22T01:26:57.655Z,52.74
2023-05-22T01:29:48.773Z,52.67
2023-05-22T01:32:30.473Z,52.64
2023-05-22T01:35:15.359Z,52.55
2023-05-22T01:37:59.535Z,52.51
2023-05-22T01:40:39.658Z,52.46
2023-05-22T01:43:39.645Z,52.62
2023-05-22T01:46:39.321Z,52.70
2023-05-22T01:49:25.788Z,52.62
2023-05-22T01:52:35.268Z,52.69
2023-05-22T01:55:37.960Z,52.91
2023-05-22T01:58:50.893Z,52.86
2023-05-22T02:01:35.978Z,52.98
2023-05-22T02:04:41.111Z,53.09
2023-05-22T02:07:21.526Z,53.05
2023-05-22T02:09:58.422Z,53.15
2023-05-22T02:12:40.825Z,52.89
2023-05-22T02:15:27.018Z,53.08
2023-05-22T02:18:09.099Z,53.18
2023-05-22T02:20:42.438Z,53.52
2023-05-22T02:23:12.642Z,53.57
2023-05-22T02:26:12.362Z,53.31
2023-05-22T02:28:50.239Z,53.16
2023-05-22T02:31:29.762Z,53.16
2023-05-22T02:34:10.990Z,53.04
2023-05-22T02:36:51.013Z,53.19
2023-05-22T02:43:22.981Z,53.07
2023-05-22T02:47:14.151Z,53.11
2023-05-22T02:49:51.724Z,53.31
2023-05-22T02:52:59.550Z,53.56
2023-05-22T02:56:24.420Z,53.74
2023-05-22T02:59:18.100Z,53.89
2023-05-22T03:01:54.105Z,53.81
2023-05-22T03:04:58.238Z,53.69
2023-05-22T03:08:33.092Z,53.66
2023-05-22T03:11:34.953Z,53.13
2023-05-22T03:14:17.185Z,53.22
2023-05-22T03:17:40.698Z,53.14
2023-05-22T03:20:40.111Z,53.14
2023-05-22T03:24:11.249Z,52.94
2023-05-22T03:27:07.101Z,53.09
2023-05-22T03:30:25.377Z,53.53
2023-05-22T03:34:06.261Z,53.31
2023-05-22T03:36:52.026Z,53.08
2023-05-22T03:39:28.490Z,53.03
2023-05-22T03:42:09.113Z,53.22
2023-05-22T03:45:32.231Z,53.59
2023-05-22T03:48:16.904Z,53.41
2023-05-22T03:51:32.497Z,53.52
2023-05-22T03:54:07.393Z,53.89
2023-05-22T03:56:56.655Z,54.11
2023-05-22T03:59:46.858Z,54.14
2023-05-22T04:02:47.046Z,53.99
2023-05-22T04:05:45.513Z,54.23
2023-05-22T04:08:31.151Z,54.33
2023-05-22T04:11:10.791Z,54.47
2023-05-22T04:13:52.727Z,54.66
2023-05-22T04:16:31.305Z,54.56
2023-05-22T04:19:30.345Z,54.51
2023-05-22T04:22:33.825Z,54.46
2023-05-22T04:25:57.662Z,54.21
2023-05-22T04:28:39.945Z,54.20
2023-05-22T04:31:17.242Z,53.98
2023-05-22T04:33:56.099Z,53.98
2023-05-22T04:36:32.484Z,53.72
2023-05-22T04:39:25.670Z,53.60
2023-05-22T04:42:21.048Z,53.58
2023-05-22T04:44:57.562Z,53.31
2023-05-22T04:47:52.560Z,53.18
2023-05-22T04:50:38.526Z,53.34
2023-05-22T04:53:33.153Z,53.18
2023-05-22T04:59:08.440Z,53.05
2023-05-22T05:01:45.627Z,52.83
2023-05-22T05:04:34.462Z,52.81
2023-05-22T05:07:32.340Z,52.77
2023-05-22T05:10:49.805Z,52.27
2023-05-22T05:13:45.870Z,52.21
2023-05-22T05:16:28.754Z,52.44
2023-05-22T05:19:42.356Z,52.45
2023-05-22T05:22:23.811Z,52.33
2023-05-22T05:24:59.599Z,51.77
2023-05-22T05:27:53.143Z,51.66
2023-05-22T05:30:30.897Z,51.57
2023-05-22T05:34:17.515Z,51.53
2023-05-22T05:37:10.076Z,51.89
2023-05-22T05:39:55.114Z,51.60
2023-05-22T05:42:29.846Z,51.20
2023-05-22T05:45:23.826Z,50.89
2023-05-22T05:48:06.669Z,50.20
2023-05-22T05:51:16.025Z,50.02
2023-05-22T05:54:18.962Z,49.90
2023-05-22T05:56:59.009Z,49.88
2023-05-22T05:59:35.112Z,49.62
2023-05-22T06:02:49.654Z,49.48
2023-05-22T06:05:46.398Z,49.80
2023-05-22T06:09:51.834Z,49.80
2023-05-22T06:13:10.521Z,49.22
2023-05-22T06:15:52.669Z,49.08
2023-05-22T06:18:41.243Z,49.57
2023-05-22T06:21:39.815Z,49.60
2023-05-22T06:25:34.677Z,49.46
2023-05-22T06:28:23.651Z,49.91
2023-05-22T06:31:19.498Z,49.44
2023-05-22T06:34:14.587Z,49.25
2023-05-22T06:37:00.440Z,49.46
2023-05-22T06:40:15.585Z,49.02
2023-05-22T06:54:07.828Z,48.81
2023-05-22T07:56:58.477Z,46.96
2023-05-22T08:04:11.367Z,46.81
2023-05-22T08:11:04.001Z,47.36
2023-05-22T08:14:40.545Z,46.93
2023-05-22T08:17:23.726Z,46.24
2023-05-22T08:20:06.873Z,46.22
2023-05-22T08:23:21.012Z,46.02
2023-05-22T08:26:28.104Z,45.35
2023-05-22T08:58:10.591Z,43.18
2023-05-22T09:21:47.052Z,42.00
2023-05-22T09:27:58.904Z,41.58
2023-05-22T09:44:26.490Z,38.09
2023-05-22T09:47:39.652Z,37.38
2023-05-22T09:51:30.665Z,38.21
2023-05-22T09:57:45.706Z,40.01
2023-05-22T10:00:58.651Z,40.30
2023-05-22T10:04:18.217Z,40.39
2023-05-22T10:07:11.167Z,40.75
2023-05-22T10:10:56.508Z,41.28
2023-05-22T10:14:26.633Z,41.02
2023-05-22T10:18:04.159Z,41.18
2023-05-22T10:35:09.056Z,39.19
2023-05-22T10:48:54.783Z,40.42
2023-05-22T11:09:58.554Z,40.41
2023-05-22T12:18:24.538Z,39.47
2023-05-22T12:27:55.254Z,39.09
2023-05-22T12:31:51.183Z,39.72
2023-05-22T12:42:57.438Z,41.64
2023-05-22T13:08:07.458Z,45.99
2023-05-22T13:11:15.077Z,46.34
2023-05-22T13:18:27.790Z,45.68
2023-05-22T13:26:58.293Z,43.93
2023-05-22T13:45:14.638Z,41.56
2023-05-22T13:48:26.502Z,41.99
2023-05-22T13:55:37.328Z,41.08
2023-05-22T13:59:51.888Z,41.50
2023-05-22T14:15:15.745Z,41.78
2023-05-22T14:25:23.857Z,43.19
2023-05-22T14:44:28.058Z,47.11
2023-05-22T14:51:03.610Z,47.04
2023-05-22T14:53:52.178Z,47.21
2023-05-22T14:57:16.603Z,46.11
2023-05-22T15:24:09.105Z,44.42
2023-05-22T15:45:40.864Z,44.37
2023-05-22T15:48:14.429Z,44.12
2023-05-22T15:51:01.089Z,44.08
2023-05-22T15:54:14.208Z,44.29
2023-05-22T16:01:10.491Z,44.79
2023-05-22T16:04:19.489Z,44.87
2023-05-22T17:15:43.562Z,53.92
2023-05-22T18:07:18.607Z,58.46
2023-05-22T18:46:40.855Z,61.34
2023-05-22T20:03:56.515Z,64.05
2023-05-22T20:07:24.730Z,64.05
2023-05-22T20:15:26.364Z,63.50
2023-05-22T20:28:17.927Z,62.71
2023-05-22T20:35:54.630Z,62.71
2023-05-22T20:38:50.821Z,62.74
2023-05-22T20:42:46.876Z,62.81
2023-05-22T20:50:02.946Z,64.22
2023-05-22T21:02:19.120Z,65.12
2023-05-22T21:06:26.018Z,65.43
2023-05-22T21:13:21.681Z,66.09
2023-05-22T21:17:16.482Z,66.89
2023-05-22T21:25:26.985Z,68.52
2023-05-22T21:28:12.149Z,68.90
2023-05-22T21:35:53.355Z,67.16
2023-05-22T21:43:09.765Z,65.41
2023-05-22T21:46:12.994Z,65.36
2023-05-22T21:49:13.411Z,65.09
2023-05-22T22:02:08.066Z,64.70
2023-05-22T22:04:41.705Z,64.98
2023-05-22T22:13:00.647Z,65.01
2023-05-22T22:16:12.334Z,65.15
2023-05-22T22:18:51.192Z,65.47
2023-05-22T22:21:34.643Z,65.63
2023-05-22T22:32:51.395Z,66.49
2023-05-22T22:35:28.847Z,66.78
2023-05-22T22:38:56.192Z,66.71
2023-05-22T22:42:08.596Z,66.62
2023-05-22T22:45:43.279Z,66.34
2023-05-22T22:48:34.024Z,66.71
2023-05-22T22:55:17.615Z,66.49
2023-05-22T22:58:52.021Z,66.43
2023-05-22T23:02:07.768Z,66.52
2023-05-22T23:05:35.953Z,66.46
2023-05-22T23:14:27.754Z,67.33
2023-05-22T23:18:29.752Z,67.28
2023-05-22T23:21:37.172Z,67.05
2023-05-22T23:24:14.225Z,66.76
2023-05-22T23:27:22.454Z,66.64
2023-05-22T23:30:47.510Z,66.59
2023-05-22T23:38:17.862Z,66.85
2023-05-22T23:47:59.593Z,66.90
2023-05-22T23:51:18.236Z,66.80
2023-05-22T23:59:15.621Z,67.26
